Time;durP1;ratioP1;P1;durP2;ratioP2;P2;SDS_P1;SDS_P2;PMS_P1;PMS_P2;Temp;Humidity;BMP_temperature;BMP_pressure;BME280_temperature;BME280_humidity;BME280_pressure;Samples;Min_cycle;Max_cycle;Signal;HPM_P1;HPM_P2
2022/04/07 00:04:12;;;;;;;;;;;10.20;99.90;;;;;;10346325;28;85203;-46
2022/04/07 00:09:13;;;;;;;;;;;10.20;99.90;;;;;;10343616;28;84095;-52
2022/04/07 00:14:14;;;;;;;;;;;10.30;99.90;;;;;;10346875;28;84710;-50
2022/04/07 00:19:15;;;;;;;;;;;10.30;99.90;;;;;;10351658;28;84289;-50
2022/04/07 00:24:16;;;;;;;;;;;10.30;99.90;;;;;;10350200;28;85354;-57
2022/04/07 00:29:17;;;;;;;;;;;10.30;99.90;;;;;;10343728;28;84195;-53
2022/04/07 00:34:18;;;;;;;;;;;10.40;99.90;;;;;;10346385;28;85002;-52
2022/04/07 00:39:18;;;;;;;;;;;10.30;99.90;;;;;;10334146;28;84548;-51
2022/04/07 00:44:21;;;;;;;;;;;10.30;99.90;;;;;;10331963;28;84254;-56
2022/04/07 00:49:22;;;;;;;;;;;10.30;99.90;;;;;;10351146;28;85046;-52
2022/04/07 00:54:23;;;;;;;;;;;10.30;99.90;;;;;;10347588;28;86000;-52
2022/04/07 00:59:23;;;;;;;;;;;10.30;92.00;;;;;;10352033;28;84517;-48
2022/04/07 01:04:24;;;;;;;;;;;10.30;99.90;;;;;;10338716;28;86071;-53
2022/04/07 01:09:24;;;;;;;;;;;10.30;83.90;;;;;;10334241;28;84285;-54
2022/04/07 01:14:25;;;;;;;;;;;10.40;64.20;;;;;;10347045;28;84870;-50
2022/04/07 01:19:26;;;;;;;;;;;10.40;71.90;;;;;;10392013;22;85862;-49
2022/04/07 01:24:31;;;;;;;;;;;10.50;41.10;;;;;;10394918;28;84753;-52
2022/04/07 01:29:32;;;;;;;;;;;10.40;23.80;;;;;;10373672;28;85029;-49
2022/04/07 01:34:33;;;;;;;;;;;10.40;38.10;;;;;;10352775;28;84792;-49
2022/04/07 01:39:34;;;;;;;;;;;10.30;30.60;;;;;;10354674;28;84029;-53
2022/04/07 01:44:37;;;;;;;;;;;10.30;20.70;;;;;;10330556;28;84012;-48
2022/04/07 01:49:38;;;;;;;;;;;10.30;9.20;;;;;;10355105;28;84957;-51
2022/04/07 01:54:42;;;;;;;;;;;10.30;14.70;;;;;;10350755;28;84807;-47
2022/04/07 01:59:42;;;;;;;;;;;10.30;1.00;;;;;;10346829;28;84147;-51
2022/04/07 02:04:53;;;;;;;;;;;10.20;3.90;;;;;;10347776;28;84281;-51
2022/04/07 02:09:54;;;;;;;;;;;10.20;4.70;;;;;;10356174;28;83993;-51
2022/04/07 02:14:54;;;;;;;;;;;10.20;1.00;;;;;;10348787;28;84778;-50
2022/04/07 02:19:56;;;;;;;;;;;10.30;1.00;;;;;;10345561;28;84883;-53
2022/04/07 02:24:57;;;;;;;;;;;10.30;1.00;;;;;;10354096;28;84784;-49
2022/04/07 02:29:58;;;;;;;;;;;10.30;1.00;;;;;;10334606;28;85096;-49
2022/04/07 02:34:58;;;;;;;;;;;10.20;31.90;;;;;;10308648;28;86069;-49
2022/04/07 02:39:59;;;;;;;;;;;10.00;99.90;;;;;;10346661;28;84852;-51
2022/04/07 02:44:59;;;;;;;;;;;9.90;99.90;;;;;;10311819;28;85937;-52
2022/04/07 02:50:00;;;;;;;;;;;9.80;99.90;;;;;;10353376;28;84219;-50
2022/04/07 02:55:00;;;;;;;;;;;9.90;99.90;;;;;;10328834;28;84897;-49
2022/04/07 03:00:03;;;;;;;;;;;9.90;99.90;;;;;;10345154;28;85039;-52
2022/04/07 03:05:03;;;;;;;;;;;9.70;99.90;;;;;;10329840;28;85244;-50
2022/04/07 03:10:04;;;;;;;;;;;9.70;99.90;;;;;;10345039;28;84152;-53
2022/04/07 03:15:06;;;;;;;;;;;9.70;99.90;;;;;;10336320;28;84470;-49
2022/04/07 03:20:06;;;;;;;;;;;9.80;99.90;;;;;;10351930;28;84419;-49
2022/04/07 03:25:07;;;;;;;;;;;9.90;99.90;;;;;;10344728;28;84878;-50
2022/04/07 03:30:08;;;;;;;;;;;9.90;99.10;;;;;;10345085;28;83991;-49
2022/04/07 03:35:08;;;;;;;;;;;9.90;60.30;;;;;;10352392;28;84995;-50
2022/04/07 03:40:09;;;;;;;;;;;10.00;57.50;;;;;;10350765;28;85223;-49
2022/04/07 03:45:10;;;;;;;;;;;10.00;35.50;;;;;;10345190;28;84098;-51
2022/04/07 03:50:11;;;;;;;;;;;10.00;50.00;;;;;;10333067;28;87011;-50
2022/04/07 03:55:11;;;;;;;;;;;10.00;58.00;;;;;;10344624;28;84639;-49
2022/04/07 04:00:12;;;;;;;;;;;10.00;69.10;;;;;;10344940;28;84198;-49
2022/04/07 04:05:13;;;;;;;;;;;10.10;19.60;;;;;;10353363;28;84696;-55
2022/04/07 04:10:13;;;;;;;;;;;10.20;3.70;;;;;;10361990;28;84156;-52
2022/04/07 04:15:14;;;;;;;;;;;10.30;1.00;;;;;;10338761;28;84220;-50
2022/04/07 04:20:14;;;;;;;;;;;10.30;1.00;;;;;;10333797;28;84950;-52
2022/04/07 04:25:15;;;;;;;;;;;10.30;1.00;;;;;;10363113;28;84015;-51
2022/04/07 04:30:18;;;;;;;;;;;10.30;1.00;;;;;;10350135;28;84868;-49
2022/04/07 04:35:18;;;;;;;;;;;10.30;1.00;;;;;;10369697;28;84053;-48
2022/04/07 04:40:19;;;;;;;;;;;10.30;1.00;;;;;;10325725;28;84977;-50
2022/04/07 04:45:20;;;;;;;;;;;10.40;1.00;;;;;;10336230;28;84170;-52
2022/04/07 04:50:20;;;;;;;;;;;10.40;1.00;;;;;;10292007;28;86008;-51
2022/04/07 04:55:21;;;;;;;;;;;10.40;1.00;;;;;;10325933;28;84256;-51
2022/04/07 05:00:21;;;;;;;;;;;10.40;1.00;;;;;;10332296;28;85092;-51
2022/04/07 05:05:22;;;;;;;;;;;10.50;1.00;;;;;;10317434;28;84370;-54
2022/04/07 05:10:22;;;;;;;;;;;10.40;1.00;;;;;;10333833;28;85065;-52
2022/04/07 05:15:23;;;;;;;;;;;10.50;1.00;;;;;;10340318;28;84106;-57
2022/04/07 05:20:23;;;;;;;;;;;10.40;1.00;;;;;;10308206;28;91335;-48
2022/04/07 05:25:24;;;;;;;;;;;10.50;1.00;;;;;;10322804;28;84141;-49
2022/04/07 05:30:25;;;;;;;;;;;10.60;1.00;;;;;;10345035;28;84808;-48
2022/04/07 05:35:29;;;;;;;;;;;10.60;1.00;;;;;;10326733;28;84968;-49
2022/04/07 05:40:30;;;;;;;;;;;10.60;1.00;;;;;;10321514;28;85564;-50
2022/04/07 05:45:31;;;;;;;;;;;10.60;1.00;;;;;;10305345;28;85129;-49
2022/04/07 05:50:31;;;;;;;;;;;10.70;1.00;;;;;;10324088;28;84974;-49
2022/04/07 05:55:32;;;;;;;;;;;10.60;1.00;;;;;;10304999;28;84288;-51
2022/04/07 06:00:33;;;;;;;;;;;10.50;1.00;;;;;;10306569;28;84856;-51
2022/04/07 06:05:35;;;;;;;;;;;10.30;60.60;;;;;;10327801;28;84761;-49
2022/04/07 06:10:36;;;;;;;;;;;10.30;99.90;;;;;;10328694;28;84771;-52
2022/04/07 06:15:36;;;;;;;;;;;10.20;99.90;;;;;;10327529;28;84050;-49
2022/04/07 06:20:37;;;;;;;;;;;9.90;99.90;;;;;;10326549;28;87328;-49
2022/04/07 06:25:37;;;;;;;;;;;9.80;99.90;;;;;;10328010;28;84785;-48
2022/04/07 06:30:38;;;;;;;;;;;9.70;99.90;;;;;;10310565;28;86990;-52
2022/04/07 06:35:38;;;;;;;;;;;9.80;99.90;;;;;;10325804;28;84276;-54
2022/04/07 06:40:39;;;;;;;;;;;9.70;99.90;;;;;;10308786;28;88343;-50
2022/04/07 06:45:39;;;;;;;;;;;9.60;99.90;;;;;;10318841;28;84797;-53
2022/04/07 06:50:40;;;;;;;;;;;9.50;99.90;;;;;;10362709;28;85362;-57
2022/04/07 06:55:40;;;;;;;;;;;9.50;99.90;;;;;;10334388;28;86932;-59
2022/04/07 07:00:43;;;;;;;;;;;9.50;99.90;;;;;;10351727;28;85188;-58
2022/04/07 07:05:44;;;;;;;;;;;9.70;99.90;;;;;;10336435;28;84218;-58
2022/04/07 07:10:48;;;;;;;;;;;9.70;99.90;;;;;;10310666;28;84834;-57
2022/04/07 07:15:49;;;;;;;;;;;9.70;99.90;;;;;;10344099;28;84463;-57
2022/04/07 07:20:49;;;;;;;;;;;9.70;99.90;;;;;;10406301;22;85047;-56
2022/04/07 07:25:50;;;;;;;;;;;9.70;99.90;;;;;;10453982;28;84929;-55
2022/04/07 07:30:51;;;;;;;;;;;9.60;99.90;;;;;;10432138;28;84035;-56
2022/04/07 07:35:51;;;;;;;;;;;9.50;99.90;;;;;;10412220;28;85004;-56
2022/04/07 07:40:52;;;;;;;;;;;9.50;99.90;;;;;;10391449;28;84834;-57
2022/04/07 07:45:52;;;;;;;;;;;9.40;99.90;;;;;;10411083;28;86082;-55
2022/04/07 07:50:53;;;;;;;;;;;9.30;99.90;;;;;;10404098;28;85116;-54
2022/04/07 07:55:54;;;;;;;;;;;9.30;99.90;;;;;;10410381;28;84098;-59
2022/04/07 08:00:56;;;;;;;;;;;9.20;99.90;;;;;;10411841;28;84723;-59
2022/04/07 08:05:56;;;;;;;;;;;9.20;99.90;;;;;;10400215;28;85008;-56
2022/04/07 08:10:57;;;;;;;;;;;9.10;99.90;;;;;;10412151;28;84327;-57
2022/04/07 08:15:57;;;;;;;;;;;9.20;99.90;;;;;;10411457;28;84741;-56
2022/04/07 08:20:58;;;;;;;;;;;9.20;99.90;;;;;;10377705;28;86648;-58
2022/04/07 08:25:58;;;;;;;;;;;9.30;99.90;;;;;;10402776;28;84435;-57
2022/04/07 08:30:59;;;;;;;;;;;9.30;99.90;;;;;;10403622;28;84666;-60
2022/04/07 08:35:59;;;;;;;;;;;9.20;99.90;;;;;;10383885;28;85312;-58
2022/04/07 08:41:00;;;;;;;;;;;9.20;99.90;;;;;;10410963;28;84182;-58
2022/04/07 08:46:02;;;;;;;;;;;9.20;99.90;;;;;;10407084;28;84330;-62
2022/04/07 08:51:04;;;;;;;;;;;9.30;99.90;;;;;;10389203;28;86154;-58
2022/04/07 08:56:05;;;;;;;;;;;9.30;99.90;;;;;;10403089;28;84145;-56
2022/04/07 09:01:06;;;;;;;;;;;9.30;99.90;;;;;;10387846;28;84105;-60
2022/04/07 09:06:06;;;;;;;;;;;9.40;99.90;;;;;;10409497;28;84159;-55
2022/04/07 09:11:08;;;;;;;;;;;9.40;99.90;;;;;;10368072;28;85795;-58
2022/04/07 09:16:13;;;;;;;;;;;9.50;99.90;;;;;;10367519;28;84890;-54
2022/04/07 09:21:31;;;;;;;;;;;9.70;99.90;;;;;;10344973;28;84243;-56
2022/04/07 09:26:36;;;;;;;;;;;7.20;99.90;;;;;;10308154;28;84189;-56
2022/04/07 09:31:38;;;;;;;;;;;5.90;99.90;;;;;;10353173;28;84194;-61
2022/04/07 09:36:39;;;;;;;;;;;5.80;99.90;;;;;;10385451;28;85004;-57
2022/04/07 09:41:40;;;;;;;;;;;5.80;99.90;;;;;;10413125;28;85385;-60
2022/04/07 09:46:40;;;;;;;;;;;5.90;99.90;;;;;;10414914;28;84977;-60
2022/04/07 09:51:47;;;;;;;;;;;6.00;99.90;;;;;;10415974;28;84880;-57
2022/04/07 09:56:48;;;;;;;;;;;6.30;99.90;;;;;;10390846;28;86759;-56
2022/04/07 10:01:50;;;;;;;;;;;7.00;99.90;;;;;;10362619;28;86817;-56
2022/04/07 10:06:53;;;;;;;;;;;7.60;99.90;;;;;;10378897;28;84940;-57
2022/04/07 10:11:54;;;;;;;;;;;7.90;99.90;;;;;;10414423;28;85828;-60
2022/04/07 10:16:55;;;;;;;;;;;8.30;99.90;;;;;;10408895;28;84211;-56
2022/04/07 10:22:14;;;;;;;;;;;9.30;99.90;;;;;;10414095;28;84928;-53
2022/04/07 10:27:15;;;;;;;;;;;9.70;99.90;;;;;;10413921;28;85711;-53
2022/04/07 10:32:18;;;;;;;;;;;10.40;99.90;;;;;;10396201;28;85063;-51
2022/04/07 10:37:39;;;;;;;;;;;11.30;99.90;;;;;;10381868;28;84835;-54
2022/04/07 10:42:58;;;;;;;;;;;11.60;99.90;;;;;;10372574;28;84151;-49
2022/04/07 10:48:16;;;;;;;;;;;11.30;99.90;;;;;;10368056;28;84175;-50
2022/04/07 10:53:19;;;;;;;;;;;11.50;76.70;;;;;;10328418;28;84388;-50
2022/04/07 10:58:20;;;;;;;;;;;11.50;33.40;;;;;;10364069;28;84854;-55
2022/04/07 11:03:20;;;;;;;;;;;10.80;16.50;;;;;;10382006;28;84964;-53
2022/04/07 11:08:21;;;;;;;;;;;10.90;1.00;;;;;;10396738;28;84232;-54
2022/04/07 11:13:45;;;;;;;;;;;11.50;1.00;;;;;;10342676;28;87268;-50
2022/04/07 11:18:50;;;;;;;;;;;12.30;1.00;;;;;;10388978;28;87162;-55
2022/04/07 11:23:55;;;;;;;;;;;12.70;1.00;;;;;;10392562;28;84025;-52
2022/04/07 11:29:02;;;;;;;;;;;13.00;1.00;;;;;;10410277;28;84545;-53
2022/04/07 11:34:22;;;;;;;;;;;13.30;1.00;;;;;;10411882;28;84026;-52
2022/04/07 11:39:23;;;;;;;;;;;12.70;1.00;;;;;;10385251;28;84052;-46
2022/04/07 11:44:24;;;;;;;;;;;13.50;99.90;;;;;;10379481;28;84251;-54
2022/04/07 11:49:25;;;;;;;;;;;13.80;1.00;;;;;;10393328;28;84725;-52
2022/04/07 11:54:26;;;;;;;;;;;14.10;99.90;;;;;;10408686;28;84112;-43
2022/04/07 11:59:34;;;;;;;;;;;13.40;1.00;;;;;;10392932;28;86783;-50
2022/04/07 12:04:35;;;;;;;;;;;12.50;2.20;;;;;;10376807;28;87062;-47
2022/04/07 12:09:35;;;;;;;;;;;11.70;99.90;;;;;;10412320;28;84776;-51
2022/04/07 12:14:36;;;;;;;;;;;11.60;99.90;;;;;;10394621;28;85110;-50
2022/04/07 12:19:43;;;;;;;;;;;12.90;1.00;;;;;;10409704;28;84924;-49
2022/04/07 12:25:00;;;;;;;;;;;14.10;29.80;;;;;;10411287;28;83927;-46
2022/04/07 12:30:04;;;;;;;;;;;13.80;1.00;;;;;;10410614;28;83921;-45
2022/04/07 12:35:05;;;;;;;;;;;13.10;1.00;;;;;;10410962;28;84392;-46
2022/04/07 12:40:08;;;;;;;;;;;14.10;1.00;;;;;;10409962;28;84102;-47
2022/04/07 12:45:09;;;;;;;;;;;13.90;1.00;;;;;;10410972;28;84342;-45
2022/04/07 12:50:10;;;;;;;;;;;13.70;31.00;;;;;;10409823;28;84234;-49
2022/04/07 12:55:12;;;;;;;;;;;12.90;21.10;;;;;;10410612;28;84880;-48
2022/04/07 13:00:21;;;;;;;;;;;13.40;1.00;;;;;;10409282;28;84443;-50
2022/04/07 13:05:26;;;;;;;;;;;13.90;99.90;;;;;;10385917;28;84094;-45
2022/04/07 13:10:27;;;;;;;;;;;13.70;1.00;;;;;;10385742;28;84939;-45
2022/04/07 13:15:28;;;;;;;;;;;13.40;99.90;;;;;;10371674;28;85074;-46
2022/04/07 13:20:29;;;;;;;;;;;13.10;1.00;;;;;;10373473;22;85000;-45
2022/04/07 13:25:29;;;;;;;;;;;12.60;1.00;;;;;;10350699;28;84208;-47
2022/04/07 13:30:30;;;;;;;;;;;12.60;1.00;;;;;;10351703;28;84106;-44
2022/04/07 13:35:30;;;;;;;;;;;12.90;99.90;;;;;;10350641;28;85467;-45
2022/04/07 13:40:31;;;;;;;;;;;12.90;1.00;;;;;;10341415;28;84700;-45
2022/04/07 13:45:31;;;;;;;;;;;12.70;1.00;;;;;;10322448;28;84122;-47
2022/04/07 13:50:32;;;;;;;;;;;12.60;1.00;;;;;;10331929;28;84938;-45
2022/04/07 13:55:33;;;;;;;;;;;12.20;1.00;;;;;;10312624;28;85155;-42
2022/04/07 14:00:34;;;;;;;;;;;11.90;99.90;;;;;;10329239;28;84935;-45
2022/04/07 14:05:35;;;;;;;;;;;11.80;99.90;;;;;;10332706;28;84295;-43
2022/04/07 14:10:35;;;;;;;;;;;11.00;1.00;;;;;;10333718;28;84934;-44
2022/04/07 14:15:36;;;;;;;;;;;10.80;1.00;;;;;;10314368;28;84635;-46
2022/04/07 14:20:40;;;;;;;;;;;10.90;1.00;;;;;;10332712;28;84905;-44
2022/04/07 14:25:40;;;;;;;;;;;11.40;1.00;;;;;;10330211;28;84047;-44
2022/04/07 14:30:41;;;;;;;;;;;12.10;99.90;;;;;;10330990;28;84743;-44
2022/04/07 14:35:42;;;;;;;;;;;12.00;1.00;;;;;;10338892;28;85050;-43
2022/04/07 14:40:43;;;;;;;;;;;12.00;1.00;;;;;;10325451;28;84532;-44
2022/04/07 14:45:44;;;;;;;;;;;12.20;1.00;;;;;;10329274;28;85418;-43
2022/04/07 14:50:44;;;;;;;;;;;11.90;1.00;;;;;;10312914;28;84805;-44
2022/04/07 14:55:45;;;;;;;;;;;11.90;1.00;;;;;;10300791;28;84173;-44
2022/04/07 15:00:49;;;;;;;;;;;11.70;1.00;;;;;;10301686;28;84091;-44
2022/04/07 15:05:51;;;;;;;;;;;11.80;1.00;;;;;;10304243;28;85056;-44
2022/04/07 15:10:54;;;;;;;;;;;11.80;1.00;;;;;;10317275;28;84224;-50
2022/04/07 15:15:54;;;;;;;;;;;11.90;1.00;;;;;;10330135;28;84862;-44
2022/04/07 15:20:55;;;;;;;;;;;11.90;1.00;;;;;;10346489;28;84975;-43
2022/04/07 15:25:55;;;;;;;;;;;11.90;1.00;;;;;;10328550;28;84934;-45
2022/04/07 15:30:56;;;;;;;;;;;11.80;1.00;;;;;;10323801;28;84939;-50
2022/04/07 15:35:56;;;;;;;;;;;11.60;1.00;;;;;;10327545;28;84251;-47
2022/04/07 15:40:57;;;;;;;;;;;11.60;1.00;;;;;;10328202;28;84661;-44
2022/04/07 15:45:57;;;;;;;;;;;11.50;1.00;;;;;;10329064;28;84993;-45
2022/04/07 15:50:59;;;;;;;;;;;11.50;1.00;;;;;;10320609;28;85265;-44
2022/04/07 15:55:59;;;;;;;;;;;11.60;1.00;;;;;;10325929;28;85008;-44
2022/04/07 16:01:00;;;;;;;;;;;11.60;1.00;;;;;;10325959;28;85187;-44
2022/04/07 16:06:01;;;;;;;;;;;11.60;1.00;;;;;;10302891;28;86221;-49
2022/04/07 16:11:01;;;;;;;;;;;11.60;1.00;;;;;;10321005;28;85042;-47
2022/04/07 16:16:02;;;;;;;;;;;11.60;95.10;;;;;;10320521;28;84678;-52
2022/04/07 16:21:03;;;;;;;;;;;11.60;1.00;;;;;;10320941;28;84862;-50
2022/04/07 16:26:04;;;;;;;;;;;11.50;1.00;;;;;;10281024;28;84800;-45
2022/04/07 16:31:08;;;;;;;;;;;11.60;1.00;;;;;;10355608;28;84488;-46
2022/04/07 16:36:08;;;;;;;;;;;11.60;1.00;;;;;;10335257;28;85172;-47
2022/04/07 16:41:10;;;;;;;;;;;11.60;1.00;;;;;;10317478;28;84979;-45
2022/04/07 16:46:10;;;;;;;;;;;10.70;1.00;;;;;;10325452;28;84936;-55
2022/04/07 16:51:11;;;;;;;;;;;9.40;1.00;;;;;;10332245;28;84744;-50
2022/04/07 16:56:12;;;;;;;;;;;8.90;1.00;;;;;;10355916;28;84920;-48
2022/04/07 17:01:12;;;;;;;;;;;8.60;1.00;;;;;;10328387;28;84704;-46
2022/04/07 17:06:13;;;;;;;;;;;8.50;1.00;;;;;;10316046;28;87268;-42
2022/04/07 17:11:13;;;;;;;;;;;8.30;1.00;;;;;;10334657;28;84778;-48
2022/04/07 17:16:15;;;;;;;;;;;8.30;1.00;;;;;;10328044;28;85422;-51
2022/04/07 17:21:17;;;;;;;;;;;8.20;1.00;;;;;;10304929;28;86065;-46
2022/04/07 17:26:18;;;;;;;;;;;7.80;57.30;;;;;;10304116;28;85971;-48
2022/04/07 17:31:18;;;;;;;;;;;7.50;99.90;;;;;;10305189;28;84156;-47
2022/04/07 17:36:22;;;;;;;;;;;7.60;99.90;;;;;;10320839;28;85665;-49
2022/04/07 17:41:22;;;;;;;;;;;7.70;92.10;;;;;;10304013;28;86708;-52
2022/04/07 17:46:23;;;;;;;;;;;7.70;78.90;;;;;;10340423;28;88518;-50
2022/04/07 17:51:23;;;;;;;;;;;7.80;37.60;;;;;;10349920;28;84126;-51
2022/04/07 17:56:24;;;;;;;;;;;7.90;11.90;;;;;;10342203;28;84753;-46
2022/04/07 18:01:25;;;;;;;;;;;7.90;35.10;;;;;;10327485;28;84462;-47
2022/04/07 18:06:25;;;;;;;;;;;7.90;69.90;;;;;;10333404;28;84757;-51
2022/04/07 18:11:26;;;;;;;;;;;7.80;92.50;;;;;;10346570;28;84554;-44
2022/04/07 18:16:26;;;;;;;;;;;7.80;99.90;;;;;;10320919;28;86315;-47
2022/04/07 18:21:27;;;;;;;;;;;7.80;99.90;;;;;;10320810;28;84984;-47
2022/04/07 18:26:27;;;;;;;;;;;7.40;99.90;;;;;;10310007;28;84710;-49
2022/04/07 18:31:28;;;;;;;;;;;7.20;99.90;;;;;;10356311;28;84160;-47
2022/04/07 18:36:29;;;;;;;;;;;7.20;99.90;;;;;;10327837;28;84939;-48
2022/04/07 18:41:29;;;;;;;;;;;7.20;99.90;;;;;;10309639;28;84992;-49
2022/04/07 18:46:30;;;;;;;;;;;7.20;99.90;;;;;;10332572;28;86019;-49
2022/04/07 18:51:31;;;;;;;;;;;7.20;99.90;;;;;;10346509;28;85427;-53
2022/04/07 18:56:31;;;;;;;;;;;7.20;99.90;;;;;;10349993;28;85120;-52
2022/04/07 19:01:32;;;;;;;;;;;7.20;99.90;;;;;;10328811;28;84145;-42
2022/04/07 19:06:33;;;;;;;;;;;7.30;99.90;;;;;;10289900;28;85999;-50
2022/04/07 19:11:33;;;;;;;;;;;7.40;99.90;;;;;;10326278;28;85058;-45
2022/04/07 19:16:34;;;;;;;;;;;7.40;99.90;;;;;;10308358;28;84938;-44
2022/04/07 19:21:35;;;;;;;;;;;7.40;99.90;;;;;;10333424;28;84196;-46
2022/04/07 19:26:35;;;;;;;;;;;7.40;99.90;;;;;;10326277;28;85248;-44
2022/04/07 19:31:38;;;;;;;;;;;7.60;24.40;;;;;;10346393;28;84352;-41
2022/04/07 19:36:38;;;;;;;;;;;7.70;45.30;;;;;;10305935;28;86259;-42
2022/04/07 19:41:40;;;;;;;;;;;7.70;99.90;;;;;;10311641;28;84854;-45
2022/04/07 19:46:40;;;;;;;;;;;7.40;99.90;;;;;;10321092;28;85322;-43
2022/04/07 19:51:41;;;;;;;;;;;7.30;99.90;;;;;;10328410;28;84988;-44
2022/04/07 19:56:41;;;;;;;;;;;7.20;99.90;;;;;;10309331;28;84879;-43
2022/04/07 20:01:42;;;;;;;;;;;7.20;99.90;;;;;;10300305;28;86840;-45
2022/04/07 20:06:43;;;;;;;;;;;7.20;99.90;;;;;;10321140;28;85042;-44
2022/04/07 20:11:46;;;;;;;;;;;7.30;99.90;;;;;;10356837;22;84220;-52
2022/04/07 20:16:46;;;;;;;;;;;7.50;99.90;;;;;;10321143;28;85020;-49
2022/04/07 20:21:47;;;;;;;;;;;7.60;99.90;;;;;;10307409;28;86304;-49
2022/04/07 20:26:50;;;;;;;;;;;7.60;99.90;;;;;;10321997;28;84945;-48
2022/04/07 20:31:50;;;;;;;;;;;7.60;99.90;;;;;;10308773;28;87130;-52
2022/04/07 20:36:51;;;;;;;;;;;7.60;99.90;;;;;;10298648;28;84924;-50
2022/04/07 20:41:51;;;;;;;;;;;7.50;99.90;;;;;;10323064;28;84677;-48
2022/04/07 20:46:52;;;;;;;;;;;7.40;99.90;;;;;;10303534;28;85030;-52
2022/04/07 20:51:54;;;;;;;;;;;7.40;77.20;;;;;;10321997;28;84678;-48
2022/04/07 20:56:57;;;;;;;;;;;7.40;21.60;;;;;;10320076;28;84850;-50
2022/04/07 21:01:57;;;;;;;;;;;7.40;24.20;;;;;;10322541;28;85054;-48
2022/04/07 21:06:58;;;;;;;;;;;7.40;48.80;;;;;;10315373;28;85067;-50
2022/04/07 21:11:59;;;;;;;;;;;7.40;60.90;;;;;;10319968;28;84271;-52
2022/04/07 21:17:00;;;;;;;;;;;7.50;93.10;;;;;;10316898;28;84868;-53
2022/04/07 21:22:00;;;;;;;;;;;7.50;69.70;;;;;;10319117;28;85297;-50
2022/04/07 21:27:01;;;;;;;;;;;7.50;73.80;;;;;;10317414;28;84860;-51
2022/04/07 21:32:01;;;;;;;;;;;7.60;18.00;;;;;;10319804;28;84194;-51
2022/04/07 21:37:02;;;;;;;;;;;7.60;9.50;;;;;;10324188;28;84086;-53
2022/04/07 21:42:02;;;;;;;;;;;7.60;64.00;;;;;;10332170;28;85862;-51
2022/04/07 21:47:03;;;;;;;;;;;7.60;42.60;;;;;;10314653;28;84255;-53
2022/04/07 21:52:04;;;;;;;;;;;7.60;64.80;;;;;;10290125;28;84792;-49
2022/04/07 21:57:05;;;;;;;;;;;7.60;50.40;;;;;;10292062;28;85239;-49
2022/04/07 22:02:05;;;;;;;;;;;7.60;72.50;;;;;;10314751;28;85266;-54
2022/04/07 22:07:06;;;;;;;;;;;7.60;80.80;;;;;;10312644;28;84287;-53
2022/04/07 22:12:06;;;;;;;;;;;7.60;89.30;;;;;;10307219;28;84778;-51
2022/04/07 22:17:07;;;;;;;;;;;7.60;90.00;;;;;;10313458;28;84775;-50
2022/04/07 22:22:08;;;;;;;;;;;7.70;99.90;;;;;;10311940;28;85108;-52
2022/04/07 22:27:08;;;;;;;;;;;7.70;65.20;;;;;;10311230;28;85965;-51
2022/04/07 22:32:09;;;;;;;;;;;7.60;78.00;;;;;;10311216;28;85223;-54
2022/04/07 22:37:09;;;;;;;;;;;7.60;99.90;;;;;;10292197;28;85009;-50
2022/04/07 22:42:10;;;;;;;;;;;7.60;99.90;;;;;;10329738;28;84124;-51
2022/04/07 22:47:10;;;;;;;;;;;7.60;99.90;;;;;;10327021;28;84977;-50
2022/04/07 22:52:11;;;;;;;;;;;7.60;99.90;;;;;;10329936;28;84044;-53
2022/04/07 22:57:11;;;;;;;;;;;7.70;98.50;;;;;;10328085;28;84566;-51
2022/04/07 23:02:12;;;;;;;;;;;7.60;99.90;;;;;;10329065;28;84347;-49
2022/04/07 23:07:12;;;;;;;;;;;7.50;99.90;;;;;;10296577;28;84184;-54
2022/04/07 23:12:13;;;;;;;;;;;7.40;99.90;;;;;;10310720;28;84998;-51
2022/04/07 23:17:15;;;;;;;;;;;7.40;99.90;;;;;;10312971;28;84844;-51
2022/04/07 23:22:15;;;;;;;;;;;7.40;99.90;;;;;;10306968;28;85298;-53
2022/04/07 23:27:16;;;;;;;;;;;7.50;99.90;;;;;;10312716;28;84851;-51
2022/04/07 23:32:16;;;;;;;;;;;7.50;99.90;;;;;;10319053;28;84908;-51
2022/04/07 23:37:17;;;;;;;;;;;7.50;99.90;;;;;;10307410;28;84851;-54
2022/04/07 23:42:18;;;;;;;;;;;7.40;99.90;;;;;;10319435;28;85117;-53
2022/04/07 23:47:18;;;;;;;;;;;7.40;99.90;;;;;;10316628;28;84901;-53
2022/04/07 23:52:19;;;;;;;;;;;7.30;99.90;;;;;;10312344;28;84129;-54
2022/04/07 23:57:20;;;;;;;;;;;7.30;99.90;;;;;;10294293;28;86211;-53
